Decoded Metar for KANJ (SAULT STE MARIE in MI, USA) (IATA:ANJ) | Meteo·Mobile Aviation Weather
aviador You're here:

KANJ Decoded Metar

SAULT STE MARIE in MI, USA
Report Time2020-02-25 20:55:00
UTC Time2020-02-25 21:58:53
Flight Rules vfr VFR
Wind310° at 11 kt
W.Decomp.*RWY 32: 11.0 kt HW 0.6 kt LCW
Visibility9999 m
Phenomena:N/A
Clouds:N/A
Expected CloudBase > 3,200 ft AGL from Temp-Dew spread
CeilingNone
Temp00°C (ISA -14)
Dew Point-8°C (55% RH)
AAT-6.9°C
QNH1020 hPa
Density Alt-1,132 ft
Elevation715 ft
Report Wrong Elevation
Raw Report
KANJ 252055Z AUTO 31011KT 10SM CLR 00/M08 A3013 RMK AO2 SLP210
T00001078 55003=

Extra information for KANJ:More info

Metar Taf Metar & Taf Last 4 Metars F.Rules Stats Wind Profile Meteogram Temp Stats Airport Information Weather charts Add Link Nearby VenuesMetar ALERT Operation Metar Decoded Social comments

AIRNAV info for KANJ